createdAt,value
2018-03-04T00:02:22.493Z,0.60
2018-03-04T00:04:50.700Z,0.70
2018-03-04T00:07:18.876Z,0.70
2018-03-04T00:09:47.114Z,0.60
2018-03-04T00:12:16.076Z,0.50
2018-03-04T00:14:44.960Z,0.50
2018-03-04T00:19:48.241Z,0.60
2018-03-04T00:22:17.338Z,0.70
2018-03-04T00:24:45.491Z,0.80
2018-03-04T00:27:13.702Z,0.80
2018-03-04T00:29:41.840Z,1.00
2018-03-04T00:32:10.751Z,1.30
2018-03-04T00:34:40.544Z,1.30
2018-03-04T00:37:09.535Z,1.30
2018-03-04T00:39:38.712Z,1.40
2018-03-04T00:42:06.868Z,1.40
2018-03-04T00:44:35.117Z,1.40
2018-03-04T00:47:07.217Z,1.50
2018-03-04T00:49:36.310Z,1.60
2018-03-04T00:52:04.496Z,1.60
2018-03-04T00:54:32.646Z,1.60
2018-03-04T00:57:01.831Z,1.70
2018-03-04T00:59:29.984Z,1.70
2018-03-04T01:01:58.139Z,1.70
2018-03-04T01:04:26.335Z,1.80
2018-03-04T01:06:54.485Z,1.80
2018-03-04T01:09:23.532Z,1.90
2018-03-04T01:11:51.663Z,1.90
2018-03-04T01:14:19.967Z,1.90
2018-03-04T01:16:48.278Z,2.00
2018-03-04T01:19:16.416Z,2.10
2018-03-04T01:21:44.605Z,2.10
2018-03-04T01:24:12.849Z,2.10
2018-03-04T01:26:41.018Z,2.10
2018-03-04T01:29:09.198Z,2.10
2018-03-04T01:31:38.032Z,2.10
2018-03-04T01:34:06.352Z,2.10
2018-03-04T01:36:34.501Z,2.20
2018-03-04T01:39:02.697Z,2.10
2018-03-04T01:41:32.735Z,2.20
2018-03-04T01:44:01.472Z,2.10
2018-03-04T01:46:29.764Z,2.30
2018-03-04T01:48:58.675Z,2.30
2018-03-04T01:51:38.846Z,2.30
2018-03-04T01:54:06.977Z,2.30
2018-03-04T01:56:35.130Z,2.10
2018-03-04T01:59:03.304Z,2.10
2018-03-04T02:01:32.346Z,1.80
2018-03-04T02:04:00.493Z,1.80
2018-03-04T02:06:28.664Z,1.80
2018-03-04T02:08:56.829Z,1.70
2018-03-04T02:11:26.450Z,1.50
2018-03-04T02:13:55.416Z,1.30
2018-03-04T02:16:23.615Z,1.30
2018-03-04T02:18:51.826Z,1.20
2018-03-04T02:21:20.002Z,1.20
2018-03-04T02:23:48.986Z,1.00
2018-03-04T02:26:17.136Z,1.00
2018-03-04T02:28:46.057Z,0.80
2018-03-04T02:31:15.031Z,0.80
2018-03-04T02:33:44.043Z,0.70
2018-03-04T02:36:12.268Z,0.60
2018-03-04T02:38:40.426Z,0.60
2018-03-04T02:41:08.610Z,0.60
2018-03-04T02:43:36.771Z,0.70
2018-03-04T02:46:04.984Z,0.80
2018-03-04T02:48:33.147Z,0.80
2018-03-04T02:51:01.340Z,0.80
2018-03-04T02:53:29.487Z,0.80
2018-03-04T02:55:57.645Z,0.70
2018-03-04T02:58:25.882Z,0.70
2018-03-04T03:00:54.042Z,0.60
2018-03-04T03:03:22.336Z,0.60
2018-03-04T03:05:50.518Z,0.70
2018-03-04T03:08:18.830Z,0.80
2018-03-04T03:10:47.678Z,0.90
2018-03-04T03:13:15.921Z,1.00
2018-03-04T03:15:44.831Z,1.50
2018-03-04T03:18:12.995Z,1.50
2018-03-04T03:20:42.165Z,1.70
2018-03-04T03:23:10.313Z,1.90
2018-03-04T03:25:38.457Z,2.10
2018-03-04T03:28:06.942Z,2.30
2018-03-04T03:30:35.107Z,2.40
2018-03-04T03:33:03.463Z,2.50
2018-03-04T03:35:32.546Z,2.60
2018-03-04T03:40:34.255Z,2.70
2018-03-04T03:43:02.386Z,2.80
2018-03-04T03:45:30.535Z,2.90
2018-03-04T03:47:58.695Z,3.00
2018-03-04T03:50:27.591Z,3.00
2018-03-04T03:52:55.788Z,2.90
2018-03-04T03:55:23.951Z,2.90
2018-03-04T03:57:52.097Z,2.90
2018-03-04T04:00:20.838Z,3.00
2018-03-04T04:02:49.024Z,3.00
2018-03-04T04:05:17.926Z,2.80
2018-03-04T04:07:46.177Z,2.80
2018-03-04T04:10:14.348Z,2.70
2018-03-04T04:12:42.961Z,2.50
2018-03-04T04:15:11.169Z,2.50
2018-03-04T04:17:39.549Z,2.50
2018-03-04T04:20:07.891Z,2.40
2018-03-04T04:22:36.033Z,2.40
2018-03-04T04:25:04.261Z,2.30
2018-03-04T04:27:33.290Z,2.30
2018-03-04T04:30:01.439Z,2.20
2018-03-04T04:32:29.591Z,2.10
2018-03-04T04:34:57.757Z,2.20
2018-03-04T04:37:25.925Z,2.10
2018-03-04T04:39:54.203Z,2.10
2018-03-04T04:42:22.423Z,2.10
2018-03-04T04:44:50.587Z,2.10
2018-03-04T04:47:18.942Z,2.00
2018-03-04T04:49:47.403Z,2.00
2018-03-04T04:52:16.416Z,2.10
2018-03-04T04:54:44.585Z,2.10
2018-03-04T04:57:13.673Z,2.00
2018-03-04T04:59:41.854Z,2.00
2018-03-04T05:02:10.103Z,1.90
2018-03-04T05:04:39.165Z,1.70
2018-03-04T05:07:07.464Z,1.70
2018-03-04T05:09:36.612Z,1.70
2018-03-04T05:12:04.801Z,1.70
2018-03-04T05:14:32.970Z,1.70
2018-03-04T05:17:01.973Z,1.70
2018-03-04T05:19:30.136Z,1.60
2018-03-04T05:21:58.904Z,1.70
2018-03-04T05:24:27.183Z,1.70
2018-03-04T05:26:55.347Z,1.70
2018-03-04T05:29:23.532Z,1.80
2018-03-04T05:31:51.695Z,1.80
2018-03-04T05:34:20.054Z,1.90
2018-03-04T05:36:49.219Z,1.80
2018-03-04T05:39:17.797Z,1.80
2018-03-04T05:41:45.975Z,1.80
2018-03-04T05:44:14.123Z,1.90
2018-03-04T05:46:42.279Z,1.90
2018-03-04T05:49:10.444Z,2.00
2018-03-04T05:51:38.728Z,2.00
2018-03-04T05:54:06.924Z,2.00
2018-03-04T05:56:35.259Z,2.00
2018-03-04T05:59:04.401Z,1.90
2018-03-04T06:01:33.066Z,1.90
2018-03-04T06:04:01.221Z,2.00
2018-03-04T06:06:29.538Z,1.90
2018-03-04T06:08:57.701Z,1.90
2018-03-04T06:11:25.967Z,1.90
2018-03-04T06:13:54.155Z,1.90
2018-03-04T06:16:22.409Z,1.90
2018-03-04T06:18:50.658Z,1.90
2018-03-04T06:21:19.850Z,1.80
2018-03-04T06:23:49.065Z,1.80
2018-03-04T06:26:17.412Z,1.80
2018-03-04T06:28:45.553Z,1.70
2018-03-04T06:31:13.717Z,1.70
2018-03-04T06:33:41.853Z,1.70
2018-03-04T06:36:10.144Z,1.70
2018-03-04T06:38:38.999Z,1.70
2018-03-04T06:41:08.540Z,1.70
2018-03-04T06:43:36.906Z,1.80
2018-03-04T06:46:05.953Z,1.80
2018-03-04T06:48:35.006Z,1.80
2018-03-04T06:51:03.943Z,1.80
2018-03-04T06:53:32.114Z,1.80
2018-03-04T06:56:01.253Z,1.90
2018-03-04T06:58:30.168Z,2.10
2018-03-04T07:00:58.497Z,2.00
2018-03-04T07:03:26.642Z,2.30
2018-03-04T07:05:54.907Z,2.50
2018-03-04T07:08:23.112Z,2.50
2018-03-04T07:10:51.774Z,2.50
2018-03-04T07:13:23.590Z,2.50
2018-03-04T07:15:52.538Z,2.60
2018-03-04T07:18:20.764Z,2.60
2018-03-04T07:20:49.697Z,2.70
2018-03-04T07:23:17.992Z,2.70
2018-03-04T07:25:47.027Z,2.80
2018-03-04T07:28:15.973Z,2.90
2018-03-04T07:30:44.226Z,2.90
2018-03-04T07:33:12.537Z,3.00
2018-03-04T07:35:40.769Z,3.00
2018-03-04T07:38:08.975Z,3.00
2018-03-04T07:40:37.303Z,3.00
2018-03-04T07:43:05.616Z,3.10
2018-03-04T07:45:33.778Z,3.10
2018-03-04T07:48:02.076Z,3.20
2018-03-04T07:50:30.245Z,3.40
2018-03-04T07:52:58.401Z,3.40
2018-03-04T07:55:26.953Z,3.50
2018-03-04T07:57:55.886Z,3.70
2018-03-04T08:00:24.173Z,3.70
2018-03-04T08:02:53.570Z,3.80
2018-03-04T08:05:21.745Z,3.80
2018-03-04T08:07:50.007Z,3.90
2018-03-04T08:10:18.272Z,4.00
2018-03-04T08:12:46.573Z,4.10
2018-03-04T08:15:14.932Z,4.10
2018-03-04T08:17:43.090Z,4.20
2018-03-04T08:20:11.277Z,4.30
2018-03-04T08:22:39.455Z,4.40
2018-03-04T08:25:35.501Z,4.50
2018-03-04T08:28:27.213Z,4.60
2018-03-04T08:31:06.096Z,4.60
2018-03-04T08:33:35.047Z,4.80
2018-03-04T08:36:03.358Z,4.80
2018-03-04T08:38:32.275Z,5.00
2018-03-04T08:41:01.006Z,5.00
2018-03-04T08:43:29.199Z,5.00
2018-03-04T08:45:57.851Z,5.10
2018-03-04T08:48:26.014Z,5.20
2018-03-04T08:50:54.172Z,5.30
2018-03-04T08:53:22.419Z,5.50
2018-03-04T08:55:51.329Z,5.70
2018-03-04T08:58:20.556Z,5.80
2018-03-04T09:00:48.703Z,5.80
2018-03-04T09:03:16.954Z,5.80
2018-03-04T09:05:45.111Z,6.00
2018-03-04T09:08:13.355Z,6.10
2018-03-04T09:10:41.650Z,6.20
2018-03-04T09:13:09.815Z,6.30
2018-03-04T09:15:37.965Z,6.40
2018-03-04T09:18:06.159Z,6.50
2018-03-04T09:20:34.539Z,6.60
2018-03-04T09:23:02.691Z,6.70
2018-03-04T09:25:30.909Z,6.80
2018-03-04T09:27:59.142Z,7.00
2018-03-04T09:30:27.422Z,7.10
2018-03-04T09:32:55.595Z,7.20
2018-03-04T09:35:23.913Z,7.30
2018-03-04T09:37:53.578Z,7.50
2018-03-04T09:40:21.719Z,7.40
2018-03-04T09:42:50.021Z,7.60
2018-03-04T09:45:18.170Z,7.70
2018-03-04T09:47:47.145Z,7.90
2018-03-04T09:50:15.345Z,7.90
2018-03-04T09:52:44.267Z,8.10
2018-03-04T09:55:12.449Z,8.10
2018-03-04T09:57:40.602Z,8.20
2018-03-04T10:00:08.778Z,8.20
2018-03-04T10:02:37.049Z,8.40
2018-03-04T10:05:05.258Z,8.50
2018-03-04T10:07:33.677Z,8.60
2018-03-04T10:10:02.598Z,8.80
2018-03-04T10:12:30.770Z,8.70
2018-03-04T10:14:58.918Z,8.80
2018-03-04T10:17:28.208Z,8.90
2018-03-04T10:19:57.357Z,9.00
2018-03-04T10:22:25.508Z,9.00
2018-03-04T10:24:53.869Z,9.00
2018-03-04T10:27:22.166Z,9.10
2018-03-04T10:29:50.416Z,9.20
2018-03-04T10:32:20.028Z,9.30
2018-03-04T10:34:49.123Z,9.30
2018-03-04T10:37:17.400Z,9.40
2018-03-04T10:39:45.711Z,9.50
2018-03-04T10:42:13.904Z,9.60
2018-03-04T10:44:42.066Z,9.50
2018-03-04T10:47:11.132Z,9.60
2018-03-04T10:49:39.354Z,9.60
2018-03-04T10:52:07.496Z,9.70
2018-03-04T10:54:36.971Z,9.80
2018-03-04T10:57:05.123Z,9.80
2018-03-04T10:59:33.270Z,9.90
2018-03-04T11:02:04.347Z,9.90
2018-03-04T11:04:32.545Z,10.00
2018-03-04T11:07:01.045Z,10.10
2018-03-04T11:09:29.206Z,10.20
2018-03-04T11:11:57.477Z,10.30
2018-03-04T11:14:26.544Z,10.60
2018-03-04T11:16:55.733Z,10.70
2018-03-04T11:19:23.915Z,10.60
2018-03-04T11:21:52.308Z,10.70
2018-03-04T11:24:21.245Z,10.80
2018-03-04T11:26:49.619Z,10.80
2018-03-04T11:29:18.097Z,11.00
2018-03-04T11:31:46.403Z,11.10
2018-03-04T11:34:14.596Z,11.30
2018-03-04T11:36:43.459Z,11.50
2018-03-04T11:39:11.644Z,11.60
2018-03-04T11:41:40.603Z,11.80
2018-03-04T11:44:08.762Z,11.80
2018-03-04T11:46:36.958Z,12.00
2018-03-04T11:49:05.190Z,12.00
2018-03-04T11:51:34.154Z,12.30
2018-03-04T11:54:02.368Z,12.20
2018-03-04T11:56:30.684Z,12.50
2018-03-04T11:58:58.830Z,12.70
2018-03-04T12:01:27.295Z,12.80
2018-03-04T12:03:55.553Z,12.90
2018-03-04T12:06:23.709Z,13.00
2018-03-04T12:08:51.883Z,13.00
2018-03-04T12:11:20.191Z,13.20
2018-03-04T12:13:49.140Z,13.50
2018-03-04T12:16:17.396Z,13.50
2018-03-04T12:18:45.565Z,13.60
2018-03-04T12:21:13.737Z,13.70
2018-03-04T12:23:41.897Z,13.90
2018-03-04T12:26:11.782Z,14.10
2018-03-04T12:28:40.730Z,14.30
2018-03-04T12:31:08.918Z,14.30
2018-03-04T12:33:37.211Z,14.30
2018-03-04T12:36:05.628Z,14.10
2018-03-04T12:38:33.808Z,14.00
2018-03-04T12:41:02.003Z,14.00
2018-03-04T12:43:30.272Z,14.10
2018-03-04T12:45:58.571Z,13.90
2018-03-04T12:48:27.196Z,14.00
2018-03-04T12:50:55.541Z,13.90
2018-03-04T12:53:23.708Z,13.90
2018-03-04T12:55:52.782Z,13.90
2018-03-04T12:58:21.701Z,13.90
2018-03-04T13:00:50.025Z,13.80
2018-03-04T13:03:18.273Z,13.80
2018-03-04T13:05:47.222Z,13.70
2018-03-04T13:08:15.371Z,13.70
2018-03-04T13:10:43.640Z,13.80
2018-03-04T13:13:11.892Z,13.90
2018-03-04T13:15:40.811Z,13.90
2018-03-04T13:18:09.925Z,13.90
2018-03-04T13:20:38.192Z,13.80
2018-03-04T13:23:06.438Z,13.90
2018-03-04T13:25:35.462Z,13.80
2018-03-04T13:28:03.729Z,13.80
2018-03-04T13:30:31.895Z,13.80
2018-03-04T13:33:01.407Z,13.70
2018-03-04T13:35:29.665Z,13.70
2018-03-04T13:37:58.952Z,13.60
2018-03-04T13:40:27.322Z,13.50
2018-03-04T13:42:55.504Z,13.50
2018-03-04T13:45:23.876Z,13.40
2018-03-04T13:47:52.046Z,13.30
2018-03-04T13:50:20.282Z,13.40
2018-03-04T13:52:48.627Z,13.40
2018-03-04T13:55:17.565Z,13.30
2018-03-04T13:57:45.753Z,13.30
2018-03-04T14:00:13.891Z,13.30
2018-03-04T14:02:42.174Z,13.30
2018-03-04T14:05:10.436Z,13.20
2018-03-04T14:07:38.596Z,13.20
2018-03-04T14:10:07.653Z,13.10
2018-03-04T14:12:36.003Z,13.00
2018-03-04T14:15:04.241Z,13.10
2018-03-04T14:17:32.432Z,13.10
2018-03-04T14:20:00.890Z,13.20
2018-03-04T14:22:30.090Z,13.20
2018-03-04T14:24:59.034Z,13.10
2018-03-04T14:27:27.219Z,13.10
2018-03-04T14:29:55.376Z,13.10
2018-03-04T14:32:23.540Z,12.90
2018-03-04T14:34:51.792Z,12.80
2018-03-04T14:37:20.121Z,12.60
2018-03-04T14:39:48.450Z,12.50
2018-03-04T14:42:16.591Z,12.40
2018-03-04T14:44:44.769Z,12.40
2018-03-04T14:47:13.619Z,12.30
2018-03-04T14:49:41.791Z,12.30
2018-03-04T14:52:10.042Z,12.20
2018-03-04T14:54:38.394Z,12.10
2018-03-04T14:57:07.447Z,12.00
2018-03-04T14:59:35.617Z,12.00
2018-03-04T15:02:03.878Z,12.00
2018-03-04T15:04:33.205Z,11.70
2018-03-04T15:07:01.456Z,11.70
2018-03-04T15:09:29.697Z,11.60
2018-03-04T15:11:58.743Z,11.30
2018-03-04T15:14:26.984Z,11.30
2018-03-04T15:16:56.095Z,11.10
2018-03-04T15:19:24.249Z,11.10
2018-03-04T15:21:52.892Z,11.00
2018-03-04T15:24:21.117Z,10.90
2018-03-04T15:26:49.427Z,10.90
2018-03-04T15:29:17.592Z,10.80
2018-03-04T15:31:45.780Z,10.70
2018-03-04T15:34:14.005Z,10.60
2018-03-04T15:36:42.255Z,10.50
2018-03-04T15:39:11.222Z,10.40
2018-03-04T15:41:39.405Z,10.30
2018-03-04T15:44:08.031Z,10.40
2018-03-04T15:46:36.199Z,10.40
2018-03-04T15:49:05.218Z,10.30
2018-03-04T15:51:33.560Z,10.30
2018-03-04T15:54:01.828Z,10.30
2018-03-04T15:56:31.035Z,10.40
2018-03-04T15:58:59.944Z,10.40
2018-03-04T16:01:28.129Z,10.40
2018-03-04T16:03:56.460Z,10.40
2018-03-04T16:06:24.674Z,10.40
2018-03-04T16:08:53.529Z,10.40
2018-03-04T16:11:22.466Z,10.30
2018-03-04T16:13:50.602Z,10.30
2018-03-04T16:16:19.518Z,10.30
2018-03-04T16:18:47.665Z,10.20
2018-03-04T16:21:16.569Z,10.20
2018-03-04T16:23:45.480Z,10.00
2018-03-04T16:26:13.716Z,10.00
2018-03-04T16:28:42.747Z,9.90
2018-03-04T16:31:10.917Z,9.80
2018-03-04T16:33:39.067Z,9.60
2018-03-04T16:36:08.022Z,9.40
2018-03-04T16:38:36.964Z,9.40
2018-03-04T16:41:05.256Z,9.30
2018-03-04T16:43:33.566Z,9.30
2018-03-04T16:46:01.713Z,9.20
2018-03-04T16:48:29.843Z,9.10
2018-03-04T16:50:58.767Z,8.90
2018-03-04T16:53:27.084Z,8.80
2018-03-04T16:55:56.226Z,8.70
2018-03-04T16:58:24.388Z,8.70
2018-03-04T17:00:53.488Z,8.60
2018-03-04T17:03:21.831Z,8.60
2018-03-04T17:05:50.148Z,8.50
2018-03-04T17:08:19.138Z,8.40
2018-03-04T17:10:47.415Z,8.40
2018-03-04T17:13:15.566Z,8.30
2018-03-04T17:15:43.894Z,8.20
2018-03-04T17:18:12.139Z,8.20
2018-03-04T17:20:41.071Z,8.20
2018-03-04T17:23:09.305Z,8.20
2018-03-04T17:25:38.280Z,8.10
2018-03-04T17:28:06.435Z,8.10
2018-03-04T17:30:34.625Z,8.10
2018-03-04T17:33:02.793Z,8.10
2018-03-04T17:35:31.017Z,8.10
2018-03-04T17:37:59.201Z,8.00
2018-03-04T17:40:27.498Z,8.00
2018-03-04T17:42:55.645Z,7.90
2018-03-04T17:45:23.970Z,7.90
2018-03-04T17:47:52.109Z,7.90
2018-03-04T17:50:20.248Z,7.90
2018-03-04T17:52:48.636Z,7.80
2018-03-04T17:55:16.801Z,7.80
2018-03-04T17:57:46.426Z,7.80
2018-03-04T18:00:15.524Z,7.80
2018-03-04T18:02:45.462Z,7.80
2018-03-04T18:05:13.651Z,7.80
2018-03-04T18:07:42.336Z,7.80
2018-03-04T18:10:10.615Z,7.80
2018-03-04T18:12:38.752Z,7.80
2018-03-04T18:15:07.826Z,7.80
2018-03-04T18:17:36.038Z,7.70
2018-03-04T18:20:04.223Z,7.80
2018-03-04T18:22:32.379Z,7.70
2018-03-04T18:25:00.769Z,7.70
2018-03-04T18:27:29.002Z,7.70
2018-03-04T18:29:57.211Z,7.60
2018-03-04T18:32:25.472Z,7.60
2018-03-04T18:34:54.979Z,7.60
2018-03-04T18:37:23.138Z,7.60
2018-03-04T18:39:51.298Z,7.50
2018-03-04T18:42:19.452Z,7.50
2018-03-04T18:44:47.760Z,7.50
2018-03-04T18:47:16.044Z,7.50
2018-03-04T18:49:44.305Z,7.40
2018-03-04T18:52:14.056Z,7.40
2018-03-04T18:54:42.726Z,7.30
2018-03-04T18:57:10.998Z,7.40
2018-03-04T18:59:39.166Z,7.30
2018-03-04T19:02:07.460Z,7.30
2018-03-04T19:04:35.706Z,7.30
2018-03-04T19:07:03.867Z,7.30
2018-03-04T19:09:32.187Z,7.30
2018-03-04T19:12:01.218Z,7.30
2018-03-04T19:14:30.162Z,7.30
2018-03-04T19:16:58.408Z,7.30
2018-03-04T19:19:27.324Z,7.20
2018-03-04T19:21:55.490Z,7.20
2018-03-04T19:24:23.723Z,7.20
2018-03-04T19:26:51.865Z,7.10
2018-03-04T19:29:20.185Z,7.00
2018-03-04T19:31:49.116Z,7.00
2018-03-04T19:34:17.267Z,6.90
2018-03-04T19:36:46.197Z,6.90
2018-03-04T19:39:14.428Z,6.90
2018-03-04T19:41:42.599Z,6.90
2018-03-04T19:44:10.979Z,7.00
2018-03-04T19:46:39.130Z,7.00
2018-03-04T19:49:08.143Z,7.00
2018-03-04T19:51:37.385Z,7.00
2018-03-04T19:54:05.573Z,7.00
2018-03-04T19:56:33.785Z,7.00
2018-03-04T19:59:02.891Z,6.90
2018-03-04T20:01:31.819Z,6.90
2018-03-04T20:04:00.081Z,6.90
2018-03-04T20:06:28.261Z,6.90
2018-03-04T20:08:56.443Z,6.90
2018-03-04T20:11:24.638Z,6.80
2018-03-04T20:13:52.821Z,6.80
2018-03-04T20:16:21.014Z,6.80
2018-03-04T20:18:49.346Z,6.80
2018-03-04T20:21:19.160Z,6.80
2018-03-04T20:23:47.410Z,6.80
2018-03-04T20:26:15.726Z,6.80
2018-03-04T20:28:44.062Z,6.80
2018-03-04T20:31:12.202Z,6.70
2018-03-04T20:33:41.289Z,6.60
2018-03-04T20:36:09.499Z,6.60
2018-03-04T20:38:37.655Z,6.60
2018-03-04T20:41:06.047Z,6.50
2018-03-04T20:43:34.298Z,6.50
2018-03-04T20:46:02.483Z,6.40
2018-03-04T20:48:31.439Z,6.40
2018-03-04T20:50:59.655Z,6.40
2018-03-04T20:53:28.592Z,6.30
2018-03-04T20:55:56.753Z,6.30
2018-03-04T20:58:25.059Z,6.30
2018-03-04T21:00:53.213Z,6.20
2018-03-04T21:03:21.463Z,6.20
2018-03-04T21:05:49.709Z,6.10
2018-03-04T21:08:18.000Z,6.00
2018-03-04T21:10:47.048Z,6.10
2018-03-04T21:13:15.223Z,6.10
2018-03-04T21:15:43.536Z,6.10
2018-03-04T21:18:12.584Z,6.20
2018-03-04T21:20:41.581Z,6.30
2018-03-04T21:23:09.825Z,6.30
2018-03-04T21:25:38.002Z,6.30
2018-03-04T21:28:06.175Z,6.30
2018-03-04T21:30:34.386Z,6.30
2018-03-04T21:33:03.638Z,6.20
2018-03-04T21:35:32.568Z,6.10
2018-03-04T21:38:00.713Z,6.10
2018-03-04T21:40:28.891Z,6.10
2018-03-04T21:42:57.378Z,6.20
2018-03-04T21:45:25.545Z,6.20
2018-03-04T21:47:53.706Z,6.20
2018-03-04T21:50:21.901Z,6.20
2018-03-04T21:52:50.245Z,6.20
2018-03-04T21:55:18.383Z,6.20
2018-03-04T21:57:46.583Z,6.20
2018-03-04T22:00:14.826Z,6.20
2018-03-04T22:02:43.156Z,6.20
2018-03-04T22:05:11.922Z,6.20
2018-03-04T22:07:40.072Z,6.10
2018-03-04T22:10:08.282Z,6.00
2018-03-04T22:12:36.445Z,6.00
2018-03-04T22:15:04.616Z,6.00
2018-03-04T22:17:32.805Z,6.00
2018-03-04T22:20:01.777Z,6.10
2018-03-04T22:22:30.193Z,6.10
2018-03-04T22:24:58.490Z,6.10
2018-03-04T22:27:26.655Z,6.10
2018-03-04T22:29:54.930Z,6.10
2018-03-04T22:32:23.208Z,6.10
2018-03-04T22:34:51.389Z,6.20
2018-03-04T22:37:19.587Z,6.20
2018-03-04T22:39:47.874Z,6.20
2018-03-04T22:42:16.051Z,6.20
2018-03-04T22:44:44.356Z,6.20
2018-03-04T22:47:13.407Z,6.10
2018-03-04T22:49:41.785Z,6.10
2018-03-04T22:52:11.027Z,6.10
2018-03-04T22:54:39.261Z,6.10
2018-03-04T22:57:07.579Z,6.00
2018-03-04T22:59:37.546Z,6.00
2018-03-04T23:02:06.018Z,6.00
2018-03-04T23:04:34.200Z,6.00
2018-03-04T23:07:03.338Z,5.90
2018-03-04T23:09:31.637Z,5.90
2018-03-04T23:11:59.797Z,5.80
2018-03-04T23:14:28.788Z,5.70
2018-03-04T23:16:57.698Z,5.60
2018-03-04T23:19:25.865Z,5.60
2018-03-04T23:21:54.946Z,5.50
2018-03-04T23:24:24.736Z,5.40
2018-03-04T23:26:53.020Z,5.40
2018-03-04T23:29:21.173Z,5.50
2018-03-04T23:31:49.335Z,5.60
2018-03-04T23:34:17.510Z,5.60
2018-03-04T23:36:45.738Z,5.60
2018-03-04T23:39:13.957Z,5.60
2018-03-04T23:41:42.320Z,5.60
2018-03-04T23:44:10.476Z,5.60
2018-03-04T23:46:38.646Z,5.60
2018-03-04T23:49:07.030Z,5.60
2018-03-04T23:51:35.397Z,5.60
2018-03-04T23:54:03.598Z,5.60
2018-03-04T23:56:31.763Z,5.60
2018-03-04T23:58:59.949Z,5.60
